sensor_id;sensor_type;location;lat;lon;timestamp;P1;durP1;ratioP1;P2;durP2;ratioP2
9438;SDS011;5176;42.622;25.386;2023-04-16T00:01:03;5.30;;;3.93;;
9438;SDS011;5176;42.622;25.386;2023-04-16T00:03:32;4.57;;;3.30;;
9438;SDS011;5176;42.622;25.386;2023-04-16T00:06:02;4.23;;;3.47;;
9438;SDS011;5176;42.622;25.386;2023-04-16T00:08:31;6.67;;;3.60;;
9438;SDS011;5176;42.622;25.386;2023-04-16T00:11:01;7.33;;;3.57;;
9438;SDS011;5176;42.622;25.386;2023-04-16T00:13:29;5.70;;;3.33;;
9438;SDS011;5176;42.622;25.386;2023-04-16T00:15:58;6.87;;;3.50;;
9438;SDS011;5176;42.622;25.386;2023-04-16T00:18:26;8.10;;;3.30;;
9438;SDS011;5176;42.622;25.386;2023-04-16T00:20:55;6.17;;;3.97;;
9438;SDS011;5176;42.622;25.386;2023-04-16T00:23:26;5.83;;;4.10;;
9438;SDS011;5176;42.622;25.386;2023-04-16T00:25:55;6.23;;;3.93;;
9438;SDS011;5176;42.622;25.386;2023-04-16T00:28:25;8.33;;;4.40;;
9438;SDS011;5176;42.622;25.386;2023-04-16T00:30:54;4.73;;;3.73;;
9438;SDS011;5176;42.622;25.386;2023-04-16T00:33:22;5.23;;;3.30;;
9438;SDS011;5176;42.622;25.386;2023-04-16T00:35:51;5.80;;;3.70;;
9438;SDS011;5176;42.622;25.386;2023-04-16T00:38:20;6.20;;;3.50;;
9438;SDS011;5176;42.622;25.386;2023-04-16T00:40:50;6.50;;;2.87;;
9438;SDS011;5176;42.622;25.386;2023-04-16T00:43:20;3.80;;;3.20;;
9438;SDS011;5176;42.622;25.386;2023-04-16T00:45:50;4.63;;;3.30;;
9438;SDS011;5176;42.622;25.386;2023-04-16T00:48:21;7.17;;;3.20;;
9438;SDS011;5176;42.622;25.386;2023-04-16T00:50:53;5.53;;;3.20;;
9438;SDS011;5176;42.622;25.386;2023-04-16T00:53:22;11.33;;;3.40;;
9438;SDS011;5176;42.622;25.386;2023-04-16T00:55:52;9.50;;;3.10;;
9438;SDS011;5176;42.622;25.386;2023-04-16T00:58:22;5.77;;;3.13;;
9438;SDS011;5176;42.622;25.386;2023-04-16T01:00:52;6.10;;;3.03;;
9438;SDS011;5176;42.622;25.386;2023-04-16T01:03:20;3.57;;;2.70;;
9438;SDS011;5176;42.622;25.386;2023-04-16T01:05:49;6.30;;;3.40;;
9438;SDS011;5176;42.622;25.386;2023-04-16T01:08:19;3.13;;;2.80;;
9438;SDS011;5176;42.622;25.386;2023-04-16T01:10:48;3.97;;;2.67;;
9438;SDS011;5176;42.622;25.386;2023-04-16T01:13:18;4.33;;;2.70;;
9438;SDS011;5176;42.622;25.386;2023-04-16T01:15:46;3.43;;;3.00;;
9438;SDS011;5176;42.622;25.386;2023-04-16T01:18:15;4.97;;;2.93;;
9438;SDS011;5176;42.622;25.386;2023-04-16T01:20:46;4.33;;;2.83;;
9438;SDS011;5176;42.622;25.386;2023-04-16T01:23:15;4.07;;;3.10;;
9438;SDS011;5176;42.622;25.386;2023-04-16T01:25:45;4.33;;;3.13;;
9438;SDS011;5176;42.622;25.386;2023-04-16T01:28:14;9.80;;;3.20;;
9438;SDS011;5176;42.622;25.386;2023-04-16T01:30:42;5.33;;;3.10;;
9438;SDS011;5176;42.622;25.386;2023-04-16T01:33:12;4.03;;;3.30;;
9438;SDS011;5176;42.622;25.386;2023-04-16T01:35:43;4.97;;;2.87;;
9438;SDS011;5176;42.622;25.386;2023-04-16T01:38:14;5.47;;;3.00;;
9438;SDS011;5176;42.622;25.386;2023-04-16T01:40:42;3.60;;;2.80;;
9438;SDS011;5176;42.622;25.386;2023-04-16T01:43:11;5.33;;;3.03;;
9438;SDS011;5176;42.622;25.386;2023-04-16T01:45:40;4.80;;;3.30;;
9438;SDS011;5176;42.622;25.386;2023-04-16T01:48:09;3.87;;;2.87;;
9438;SDS011;5176;42.622;25.386;2023-04-16T01:50:38;5.23;;;2.93;;
9438;SDS011;5176;42.622;25.386;2023-04-16T01:53:08;4.87;;;3.40;;
9438;SDS011;5176;42.622;25.386;2023-04-16T01:55:36;2.80;;;2.60;;
9438;SDS011;5176;42.622;25.386;2023-04-16T01:58:05;3.97;;;2.80;;
9438;SDS011;5176;42.622;25.386;2023-04-16T02:00:36;3.57;;;2.70;;
9438;SDS011;5176;42.622;25.386;2023-04-16T02:03:05;6.13;;;3.73;;
9438;SDS011;5176;42.622;25.386;2023-04-16T02:05:34;6.60;;;3.27;;
9438;SDS011;5176;42.622;25.386;2023-04-16T02:08:03;5.50;;;3.10;;
9438;SDS011;5176;42.622;25.386;2023-04-16T02:10:34;3.90;;;3.00;;
9438;SDS011;5176;42.622;25.386;2023-04-16T02:13:03;4.60;;;3.10;;
9438;SDS011;5176;42.622;25.386;2023-04-16T02:15:31;3.17;;;2.80;;
9438;SDS011;5176;42.622;25.386;2023-04-16T02:18:00;3.60;;;3.27;;
9438;SDS011;5176;42.622;25.386;2023-04-16T02:20:29;6.07;;;3.20;;
9438;SDS011;5176;42.622;25.386;2023-04-16T02:22:58;5.87;;;3.20;;
9438;SDS011;5176;42.622;25.386;2023-04-16T02:25:26;3.43;;;2.73;;
9438;SDS011;5176;42.622;25.386;2023-04-16T02:27:57;8.13;;;3.07;;
9438;SDS011;5176;42.622;25.386;2023-04-16T02:30:25;3.83;;;3.50;;
9438;SDS011;5176;42.622;25.386;2023-04-16T02:32:54;4.30;;;3.10;;
9438;SDS011;5176;42.622;25.386;2023-04-16T02:35:22;7.93;;;3.20;;
9438;SDS011;5176;42.622;25.386;2023-04-16T02:37:51;5.50;;;3.60;;
9438;SDS011;5176;42.622;25.386;2023-04-16T02:40:19;5.80;;;3.33;;
9438;SDS011;5176;42.622;25.386;2023-04-16T02:42:48;4.40;;;3.27;;
9438;SDS011;5176;42.622;25.386;2023-04-16T02:45:19;6.57;;;3.37;;
9438;SDS011;5176;42.622;25.386;2023-04-16T02:47:48;5.67;;;3.87;;
9438;SDS011;5176;42.622;25.386;2023-04-16T02:50:17;3.97;;;3.43;;
9438;SDS011;5176;42.622;25.386;2023-04-16T02:52:46;4.33;;;3.23;;
9438;SDS011;5176;42.622;25.386;2023-04-16T02:55:17;4.80;;;4.17;;
9438;SDS011;5176;42.622;25.386;2023-04-16T02:57:45;6.37;;;4.60;;
9438;SDS011;5176;42.622;25.386;2023-04-16T03:00:14;13.00;;;10.77;;
9438;SDS011;5176;42.622;25.386;2023-04-16T03:02:45;7.50;;;4.90;;
9438;SDS011;5176;42.622;25.386;2023-04-16T03:05:13;5.33;;;3.80;;
9438;SDS011;5176;42.622;25.386;2023-04-16T03:07:42;7.90;;;3.87;;
9438;SDS011;5176;42.622;25.386;2023-04-16T03:10:12;3.70;;;3.40;;
9438;SDS011;5176;42.622;25.386;2023-04-16T03:12:40;6.47;;;4.93;;
9438;SDS011;5176;42.622;25.386;2023-04-16T03:15:09;4.60;;;3.90;;
9438;SDS011;5176;42.622;25.386;2023-04-16T03:17:38;8.13;;;5.87;;
9438;SDS011;5176;42.622;25.386;2023-04-16T03:20:09;5.57;;;4.27;;
9438;SDS011;5176;42.622;25.386;2023-04-16T03:22:38;7.57;;;4.57;;
9438;SDS011;5176;42.622;25.386;2023-04-16T03:25:08;6.40;;;3.93;;
9438;SDS011;5176;42.622;25.386;2023-04-16T03:27:37;4.73;;;3.53;;
9438;SDS011;5176;42.622;25.386;2023-04-16T03:30:06;5.57;;;3.83;;
9438;SDS011;5176;42.622;25.386;2023-04-16T03:32:38;6.27;;;3.83;;
9438;SDS011;5176;42.622;25.386;2023-04-16T03:35:09;5.53;;;3.40;;
9438;SDS011;5176;42.622;25.386;2023-04-16T03:37:38;5.93;;;3.97;;
9438;SDS011;5176;42.622;25.386;2023-04-16T03:40:07;10.13;;;3.70;;
9438;SDS011;5176;42.622;25.386;2023-04-16T03:42:36;5.20;;;4.13;;
9438;SDS011;5176;42.622;25.386;2023-04-16T03:45:06;3.80;;;3.50;;
9438;SDS011;5176;42.622;25.386;2023-04-16T03:47:35;4.37;;;3.40;;
9438;SDS011;5176;42.622;25.386;2023-04-16T03:50:04;4.83;;;2.93;;
9438;SDS011;5176;42.622;25.386;2023-04-16T03:52:35;7.43;;;4.07;;
9438;SDS011;5176;42.622;25.386;2023-04-16T03:55:04;5.23;;;3.57;;
9438;SDS011;5176;42.622;25.386;2023-04-16T03:57:34;4.67;;;4.17;;
9438;SDS011;5176;42.622;25.386;2023-04-16T04:00:03;4.30;;;3.60;;
9438;SDS011;5176;42.622;25.386;2023-04-16T04:02:32;3.50;;;3.10;;
9438;SDS011;5176;42.622;25.386;2023-04-16T04:05:01;3.80;;;3.20;;
9438;SDS011;5176;42.622;25.386;2023-04-16T04:07:30;3.70;;;3.40;;
9438;SDS011;5176;42.622;25.386;2023-04-16T04:10:01;4.20;;;3.53;;
9438;SDS011;5176;42.622;25.386;2023-04-16T04:12:30;4.07;;;3.50;;
9438;SDS011;5176;42.622;25.386;2023-04-16T04:14:59;5.63;;;3.87;;
9438;SDS011;5176;42.622;25.386;2023-04-16T04:17:28;4.73;;;3.83;;
9438;SDS011;5176;42.622;25.386;2023-04-16T04:19:56;5.97;;;4.13;;
9438;SDS011;5176;42.622;25.386;2023-04-16T04:22:26;4.40;;;4.00;;
9438;SDS011;5176;42.622;25.386;2023-04-16T04:24:53;6.17;;;4.00;;
9438;SDS011;5176;42.622;25.386;2023-04-16T04:27:23;8.03;;;3.77;;
9438;SDS011;5176;42.622;25.386;2023-04-16T04:29:52;6.40;;;4.43;;
9438;SDS011;5176;42.622;25.386;2023-04-16T04:32:21;6.63;;;4.13;;
9438;SDS011;5176;42.622;25.386;2023-04-16T04:34:50;6.57;;;4.07;;
9438;SDS011;5176;42.622;25.386;2023-04-16T04:37:19;5.47;;;4.80;;
9438;SDS011;5176;42.622;25.386;2023-04-16T04:39:48;5.10;;;4.50;;
9438;SDS011;5176;42.622;25.386;2023-04-16T04:42:17;5.53;;;4.03;;
9438;SDS011;5176;42.622;25.386;2023-04-16T04:44:49;5.13;;;4.53;;
9438;SDS011;5176;42.622;25.386;2023-04-16T04:47:18;7.20;;;4.33;;
9438;SDS011;5176;42.622;25.386;2023-04-16T04:49:47;5.00;;;3.47;;
9438;SDS011;5176;42.622;25.386;2023-04-16T04:52:16;6.93;;;4.23;;
9438;SDS011;5176;42.622;25.386;2023-04-16T04:54:45;7.07;;;5.03;;
9438;SDS011;5176;42.622;25.386;2023-04-16T04:57:14;6.63;;;4.80;;
9438;SDS011;5176;42.622;25.386;2023-04-16T04:59:43;7.43;;;6.17;;
9438;SDS011;5176;42.622;25.386;2023-04-16T05:02:13;6.97;;;4.53;;
9438;SDS011;5176;42.622;25.386;2023-04-16T05:04:42;5.37;;;4.23;;
9438;SDS011;5176;42.622;25.386;2023-04-16T05:07:11;4.67;;;3.50;;
9438;SDS011;5176;42.622;25.386;2023-04-16T05:09:40;7.93;;;3.90;;
9438;SDS011;5176;42.622;25.386;2023-04-16T05:12:08;5.23;;;4.13;;
9438;SDS011;5176;42.622;25.386;2023-04-16T05:14:37;6.33;;;3.77;;
9438;SDS011;5176;42.622;25.386;2023-04-16T05:17:05;8.97;;;5.00;;
9438;SDS011;5176;42.622;25.386;2023-04-16T05:19:38;8.57;;;5.00;;
9438;SDS011;5176;42.622;25.386;2023-04-16T05:22:07;8.83;;;7.10;;
9438;SDS011;5176;42.622;25.386;2023-04-16T05:24:36;9.10;;;6.37;;
9438;SDS011;5176;42.622;25.386;2023-04-16T05:27:04;9.00;;;7.20;;
9438;SDS011;5176;42.622;25.386;2023-04-16T05:29:33;10.53;;;6.47;;
9438;SDS011;5176;42.622;25.386;2023-04-16T05:32:02;8.37;;;5.60;;
9438;SDS011;5176;42.622;25.386;2023-04-16T05:34:31;8.20;;;6.10;;
9438;SDS011;5176;42.622;25.386;2023-04-16T05:37:01;7.33;;;5.80;;
9438;SDS011;5176;42.622;25.386;2023-04-16T05:39:29;8.50;;;6.43;;
9438;SDS011;5176;42.622;25.386;2023-04-16T05:41:59;10.10;;;6.50;;
9438;SDS011;5176;42.622;25.386;2023-04-16T05:44:28;10.83;;;7.13;;
9438;SDS011;5176;42.622;25.386;2023-04-16T05:46:57;11.20;;;7.97;;
9438;SDS011;5176;42.622;25.386;2023-04-16T05:49:26;8.70;;;7.03;;
9438;SDS011;5176;42.622;25.386;2023-04-16T05:51:54;13.40;;;8.77;;
9438;SDS011;5176;42.622;25.386;2023-04-16T05:54:25;12.60;;;7.83;;
9438;SDS011;5176;42.622;25.386;2023-04-16T05:56:53;14.17;;;9.47;;
9438;SDS011;5176;42.622;25.386;2023-04-16T05:59:22;11.63;;;9.17;;
9438;SDS011;5176;42.622;25.386;2023-04-16T06:01:52;12.30;;;8.10;;
9438;SDS011;5176;42.622;25.386;2023-04-16T06:04:21;12.40;;;8.57;;
9438;SDS011;5176;42.622;25.386;2023-04-16T06:06:49;16.63;;;8.67;;
9438;SDS011;5176;42.622;25.386;2023-04-16T06:09:18;11.37;;;8.30;;
9438;SDS011;5176;42.622;25.386;2023-04-16T06:11:48;14.90;;;9.80;;
9438;SDS011;5176;42.622;25.386;2023-04-16T06:14:17;13.33;;;8.97;;
9438;SDS011;5176;42.622;25.386;2023-04-16T06:16:46;13.90;;;10.10;;
9438;SDS011;5176;42.622;25.386;2023-04-16T06:19:14;19.03;;;13.43;;
9438;SDS011;5176;42.622;25.386;2023-04-16T06:21:43;43.63;;;27.57;;
9438;SDS011;5176;42.622;25.386;2023-04-16T06:24:12;18.40;;;12.27;;
9438;SDS011;5176;42.622;25.386;2023-04-16T06:26:42;19.60;;;12.43;;
9438;SDS011;5176;42.622;25.386;2023-04-16T06:29:12;18.07;;;11.30;;
9438;SDS011;5176;42.622;25.386;2023-04-16T06:31:41;16.10;;;11.40;;
9438;SDS011;5176;42.622;25.386;2023-04-16T06:34:11;19.67;;;12.93;;
9438;SDS011;5176;42.622;25.386;2023-04-16T06:36:40;19.77;;;12.60;;
9438;SDS011;5176;42.622;25.386;2023-04-16T06:39:09;21.93;;;13.13;;
9438;SDS011;5176;42.622;25.386;2023-04-16T06:41:38;21.73;;;13.73;;
9438;SDS011;5176;42.622;25.386;2023-04-16T06:44:07;23.80;;;13.00;;
9438;SDS011;5176;42.622;25.386;2023-04-16T06:46:38;18.77;;;12.73;;
9438;SDS011;5176;42.622;25.386;2023-04-16T06:49:07;17.63;;;12.50;;
9438;SDS011;5176;42.622;25.386;2023-04-16T06:51:36;19.93;;;11.70;;
9438;SDS011;5176;42.622;25.386;2023-04-16T06:54:04;16.73;;;10.87;;
9438;SDS011;5176;42.622;25.386;2023-04-16T06:56:33;19.10;;;11.80;;
9438;SDS011;5176;42.622;25.386;2023-04-16T06:59:02;22.07;;;12.57;;
9438;SDS011;5176;42.622;25.386;2023-04-16T07:01:31;16.50;;;11.53;;
9438;SDS011;5176;42.622;25.386;2023-04-16T07:04:02;14.97;;;11.23;;
9438;SDS011;5176;42.622;25.386;2023-04-16T07:06:30;17.17;;;10.63;;
9438;SDS011;5176;42.622;25.386;2023-04-16T07:09:00;16.60;;;10.43;;
9438;SDS011;5176;42.622;25.386;2023-04-16T07:11:28;14.60;;;9.57;;
9438;SDS011;5176;42.622;25.386;2023-04-16T07:13:57;15.43;;;11.13;;
9438;SDS011;5176;42.622;25.386;2023-04-16T07:16:26;13.57;;;9.77;;
9438;SDS011;5176;42.622;25.386;2023-04-16T07:18:54;16.13;;;12.30;;
9438;SDS011;5176;42.622;25.386;2023-04-16T07:21:25;23.17;;;19.43;;
9438;SDS011;5176;42.622;25.386;2023-04-16T07:23:53;18.03;;;12.10;;
9438;SDS011;5176;42.622;25.386;2023-04-16T07:26:22;29.73;;;22.07;;
9438;SDS011;5176;42.622;25.386;2023-04-16T07:28:51;17.43;;;11.53;;
9438;SDS011;5176;42.622;25.386;2023-04-16T07:31:20;22.67;;;12.13;;
9438;SDS011;5176;42.622;25.386;2023-04-16T07:33:48;20.03;;;15.07;;
9438;SDS011;5176;42.622;25.386;2023-04-16T07:36:17;24.07;;;13.33;;
9438;SDS011;5176;42.622;25.386;2023-04-16T07:38:48;18.73;;;13.03;;
9438;SDS011;5176;42.622;25.386;2023-04-16T07:41:16;19.83;;;13.83;;
9438;SDS011;5176;42.622;25.386;2023-04-16T07:43:45;21.17;;;14.30;;
9438;SDS011;5176;42.622;25.386;2023-04-16T07:46:13;21.00;;;13.40;;
9438;SDS011;5176;42.622;25.386;2023-04-16T07:48:42;20.13;;;14.87;;
9438;SDS011;5176;42.622;25.386;2023-04-16T07:51:12;17.17;;;12.53;;
9438;SDS011;5176;42.622;25.386;2023-04-16T07:53:41;18.70;;;12.47;;
9438;SDS011;5176;42.622;25.386;2023-04-16T07:56:11;21.70;;;14.03;;
9438;SDS011;5176;42.622;25.386;2023-04-16T07:58:40;22.40;;;14.37;;
9438;SDS011;5176;42.622;25.386;2023-04-16T08:01:09;18.50;;;12.67;;
9438;SDS011;5176;42.622;25.386;2023-04-16T08:03:37;22.70;;;14.33;;
9438;SDS011;5176;42.622;25.386;2023-04-16T08:06:06;18.97;;;13.23;;
9438;SDS011;5176;42.622;25.386;2023-04-16T08:08:34;19.13;;;13.70;;
9438;SDS011;5176;42.622;25.386;2023-04-16T08:11:04;22.47;;;12.90;;
9438;SDS011;5176;42.622;25.386;2023-04-16T08:13:34;17.13;;;13.83;;
9438;SDS011;5176;42.622;25.386;2023-04-16T08:16:03;18.20;;;13.47;;
9438;SDS011;5176;42.622;25.386;2023-04-16T08:18:32;18.07;;;13.50;;
9438;SDS011;5176;42.622;25.386;2023-04-16T08:21:01;17.37;;;12.37;;
9438;SDS011;5176;42.622;25.386;2023-04-16T08:23:30;17.87;;;12.40;;
9438;SDS011;5176;42.622;25.386;2023-04-16T08:26:00;16.33;;;12.17;;
9438;SDS011;5176;42.622;25.386;2023-04-16T08:28:28;15.47;;;12.60;;
9438;SDS011;5176;42.622;25.386;2023-04-16T08:30:59;18.63;;;13.00;;
9438;SDS011;5176;42.622;25.386;2023-04-16T08:33:28;22.23;;;14.53;;
9438;SDS011;5176;42.622;25.386;2023-04-16T08:35:57;20.30;;;14.10;;
9438;SDS011;5176;42.622;25.386;2023-04-16T08:38:26;25.87;;;13.67;;
9438;SDS011;5176;42.622;25.386;2023-04-16T08:40:55;17.27;;;11.67;;
9438;SDS011;5176;42.622;25.386;2023-04-16T08:43:26;14.93;;;11.97;;
9438;SDS011;5176;42.622;25.386;2023-04-16T08:46:00;18.70;;;12.80;;
9438;SDS011;5176;42.622;25.386;2023-04-16T08:48:32;19.10;;;12.67;;
9438;SDS011;5176;42.622;25.386;2023-04-16T08:51:01;16.10;;;12.33;;
9438;SDS011;5176;42.622;25.386;2023-04-16T08:53:35;18.87;;;12.10;;
9438;SDS011;5176;42.622;25.386;2023-04-16T08:56:10;17.27;;;11.60;;
9438;SDS011;5176;42.622;25.386;2023-04-16T08:58:40;16.93;;;12.07;;
9438;SDS011;5176;42.622;25.386;2023-04-16T09:01:10;16.43;;;11.80;;
9438;SDS011;5176;42.622;25.386;2023-04-16T09:03:39;21.80;;;13.43;;
9438;SDS011;5176;42.622;25.386;2023-04-16T09:06:08;20.43;;;13.70;;
9438;SDS011;5176;42.622;25.386;2023-04-16T09:08:38;17.63;;;11.73;;
9438;SDS011;5176;42.622;25.386;2023-04-16T09:11:08;16.47;;;11.37;;
9438;SDS011;5176;42.622;25.386;2023-04-16T09:13:37;17.67;;;11.47;;
9438;SDS011;5176;42.622;25.386;2023-04-16T09:16:06;14.60;;;11.67;;
9438;SDS011;5176;42.622;25.386;2023-04-16T09:18:37;15.40;;;11.20;;
9438;SDS011;5176;42.622;25.386;2023-04-16T09:21:06;16.47;;;10.50;;
9438;SDS011;5176;42.622;25.386;2023-04-16T09:23:37;14.27;;;10.68;;
9438;SDS011;5176;42.622;25.386;2023-04-16T09:26:07;17.73;;;11.18;;
9438;SDS011;5176;42.622;25.386;2023-04-16T09:28:38;13.53;;;10.47;;
9438;SDS011;5176;42.622;25.386;2023-04-16T09:31:09;17.58;;;10.10;;
9438;SDS011;5176;42.622;25.386;2023-04-16T09:33:41;15.33;;;10.33;;
9438;SDS011;5176;42.622;25.386;2023-04-16T09:36:12;17.07;;;10.33;;
9438;SDS011;5176;42.622;25.386;2023-04-16T09:38:45;13.35;;;9.40;;
9438;SDS011;5176;42.622;25.386;2023-04-16T09:41:15;14.75;;;10.65;;
9438;SDS011;5176;42.622;25.386;2023-04-16T09:43:49;18.73;;;10.55;;
9438;SDS011;5176;42.622;25.386;2023-04-16T09:46:23;14.23;;;9.60;;
9438;SDS011;5176;42.622;25.386;2023-04-16T09:48:53;13.10;;;9.38;;
9438;SDS011;5176;42.622;25.386;2023-04-16T09:51:22;14.68;;;9.65;;
9438;SDS011;5176;42.622;25.386;2023-04-16T09:53:52;13.30;;;9.57;;
9438;SDS011;5176;42.622;25.386;2023-04-16T09:56:24;13.63;;;9.25;;
9438;SDS011;5176;42.622;25.386;2023-04-16T09:58:55;12.75;;;9.73;;
9438;SDS011;5176;42.622;25.386;2023-04-16T10:01:24;14.13;;;9.75;;
9438;SDS011;5176;42.622;25.386;2023-04-16T10:03:57;15.73;;;8.85;;
9438;SDS011;5176;42.622;25.386;2023-04-16T10:06:26;15.57;;;9.30;;
9438;SDS011;5176;42.622;25.386;2023-04-16T10:08:56;12.27;;;8.48;;
9438;SDS011;5176;42.622;25.386;2023-04-16T10:11:26;10.65;;;8.20;;
9438;SDS011;5176;42.622;25.386;2023-04-16T10:13:55;12.90;;;8.43;;
9438;SDS011;5176;42.622;25.386;2023-04-16T10:16:24;12.75;;;9.02;;
9438;SDS011;5176;42.622;25.386;2023-04-16T10:18:53;12.98;;;8.23;;
9438;SDS011;5176;42.622;25.386;2023-04-16T10:21:24;16.50;;;8.95;;
9438;SDS011;5176;42.622;25.386;2023-04-16T10:23:59;11.80;;;8.55;;
9438;SDS011;5176;42.622;25.386;2023-04-16T10:26:28;16.25;;;8.98;;
9438;SDS011;5176;42.622;25.386;2023-04-16T10:28:57;14.90;;;8.82;;
9438;SDS011;5176;42.622;25.386;2023-04-16T10:31:25;15.90;;;8.38;;
9438;SDS011;5176;42.622;25.386;2023-04-16T10:33:55;11.75;;;8.18;;
9438;SDS011;5176;42.622;25.386;2023-04-16T10:36:27;11.20;;;8.30;;
9438;SDS011;5176;42.622;25.386;2023-04-16T10:38:56;11.38;;;7.65;;
9438;SDS011;5176;42.622;25.386;2023-04-16T10:41:25;13.32;;;8.27;;
9438;SDS011;5176;42.622;25.386;2023-04-16T10:44:02;10.65;;;6.45;;
9438;SDS011;5176;42.622;25.386;2023-04-16T10:46:35;9.75;;;5.78;;
9438;SDS011;5176;42.622;25.386;2023-04-16T10:49:13;9.55;;;5.47;;
9438;SDS011;5176;42.622;25.386;2023-04-16T10:51:50;9.88;;;5.82;;
9438;SDS011;5176;42.622;25.386;2023-04-16T10:54:22;8.05;;;4.95;;
9438;SDS011;5176;42.622;25.386;2023-04-16T10:56:52;8.32;;;5.43;;
9438;SDS011;5176;42.622;25.386;2023-04-16T10:59:23;9.82;;;5.97;;
9438;SDS011;5176;42.622;25.386;2023-04-16T11:01:53;8.70;;;5.97;;
9438;SDS011;5176;42.622;25.386;2023-04-16T11:04:34;11.45;;;5.50;;
9438;SDS011;5176;42.622;25.386;2023-04-16T11:07:16;10.00;;;5.63;;
9438;SDS011;5176;42.622;25.386;2023-04-16T11:09:48;8.18;;;5.75;;
9438;SDS011;5176;42.622;25.386;2023-04-16T11:12:21;6.60;;;4.40;;
9438;SDS011;5176;42.622;25.386;2023-04-16T11:14:53;11.60;;;4.80;;
9438;SDS011;5176;42.622;25.386;2023-04-16T11:17:27;9.43;;;4.65;;
9438;SDS011;5176;42.622;25.386;2023-04-16T11:19:59;8.35;;;4.63;;
9438;SDS011;5176;42.622;25.386;2023-04-16T11:22:29;6.32;;;4.32;;
9438;SDS011;5176;42.622;25.386;2023-04-16T11:24:58;7.95;;;5.05;;
9438;SDS011;5176;42.622;25.386;2023-04-16T11:27:28;6.22;;;4.32;;
9438;SDS011;5176;42.622;25.386;2023-04-16T11:29:58;7.82;;;4.50;;
9438;SDS011;5176;42.622;25.386;2023-04-16T11:32:29;6.22;;;4.40;;
9438;SDS011;5176;42.622;25.386;2023-04-16T11:34:59;7.07;;;4.28;;
9438;SDS011;5176;42.622;25.386;2023-04-16T11:37:31;7.53;;;4.95;;
9438;SDS011;5176;42.622;25.386;2023-04-16T11:40:01;8.05;;;5.60;;
9438;SDS011;5176;42.622;25.386;2023-04-16T11:42:32;8.73;;;5.70;;
9438;SDS011;5176;42.622;25.386;2023-04-16T11:45:02;7.07;;;6.10;;
9438;SDS011;5176;42.622;25.386;2023-04-16T11:47:41;9.57;;;6.28;;
9438;SDS011;5176;42.622;25.386;2023-04-16T11:50:19;8.80;;;5.95;;
9438;SDS011;5176;42.622;25.386;2023-04-16T11:52:51;10.35;;;6.22;;
9438;SDS011;5176;42.622;25.386;2023-04-16T11:55:21;7.47;;;5.90;;
9438;SDS011;5176;42.622;25.386;2023-04-16T11:57:50;7.88;;;5.07;;
9438;SDS011;5176;42.622;25.386;2023-04-16T12:00:19;8.07;;;4.78;;
9438;SDS011;5176;42.622;25.386;2023-04-16T12:02:50;11.35;;;4.75;;
9438;SDS011;5176;42.622;25.386;2023-04-16T12:05:25;10.07;;;4.25;;
9438;SDS011;5176;42.622;25.386;2023-04-16T12:07:57;7.43;;;4.63;;
9438;SDS011;5176;42.622;25.386;2023-04-16T12:10:27;8.82;;;4.65;;
9438;SDS011;5176;42.622;25.386;2023-04-16T12:13:08;8.82;;;5.00;;
9438;SDS011;5176;42.622;25.386;2023-04-16T12:15:43;10.55;;;4.65;;
9438;SDS011;5176;42.622;25.386;2023-04-16T12:18:13;8.65;;;4.53;;
9438;SDS011;5176;42.622;25.386;2023-04-16T12:20:42;6.80;;;4.30;;
9438;SDS011;5176;42.622;25.386;2023-04-16T12:23:22;7.97;;;4.75;;
9438;SDS011;5176;42.622;25.386;2023-04-16T12:25:52;5.35;;;3.80;;
9438;SDS011;5176;42.622;25.386;2023-04-16T12:28:27;8.38;;;4.43;;
9438;SDS011;5176;42.622;25.386;2023-04-16T12:30:57;8.73;;;4.63;;
9438;SDS011;5176;42.622;25.386;2023-04-16T12:33:26;7.82;;;4.30;;
9438;SDS011;5176;42.622;25.386;2023-04-16T12:35:55;8.65;;;6.03;;
9438;SDS011;5176;42.622;25.386;2023-04-16T12:38:25;8.73;;;5.55;;
9438;SDS011;5176;42.622;25.386;2023-04-16T12:40:54;9.80;;;5.70;;
9438;SDS011;5176;42.622;25.386;2023-04-16T12:43:23;10.68;;;5.53;;
9438;SDS011;5176;42.622;25.386;2023-04-16T12:45:52;9.55;;;5.97;;
9438;SDS011;5176;42.622;25.386;2023-04-16T12:48:21;10.18;;;6.18;;
9438;SDS011;5176;42.622;25.386;2023-04-16T12:50:52;10.02;;;5.68;;
9438;SDS011;5176;42.622;25.386;2023-04-16T12:53:20;10.90;;;6.07;;
9438;SDS011;5176;42.622;25.386;2023-04-16T12:55:51;6.90;;;5.75;;
9438;SDS011;5176;42.622;25.386;2023-04-16T12:58:19;6.68;;;4.90;;
9438;SDS011;5176;42.622;25.386;2023-04-16T13:00:48;12.38;;;6.57;;
9438;SDS011;5176;42.622;25.386;2023-04-16T13:03:17;14.70;;;6.82;;
9438;SDS011;5176;42.622;25.386;2023-04-16T13:05:46;11.13;;;5.68;;
9438;SDS011;5176;42.622;25.386;2023-04-16T13:08:15;7.57;;;5.15;;
9438;SDS011;5176;42.622;25.386;2023-04-16T13:10:43;7.32;;;5.75;;
9438;SDS011;5176;42.622;25.386;2023-04-16T13:13:13;8.52;;;5.40;;
9438;SDS011;5176;42.622;25.386;2023-04-16T13:15:42;7.50;;;5.82;;
9438;SDS011;5176;42.622;25.386;2023-04-16T13:18:11;9.13;;;6.13;;
9438;SDS011;5176;42.622;25.386;2023-04-16T13:20:40;10.85;;;7.15;;
9438;SDS011;5176;42.622;25.386;2023-04-16T13:23:09;9.45;;;6.68;;
9438;SDS011;5176;42.622;25.386;2023-04-16T13:25:38;10.48;;;7.50;;
9438;SDS011;5176;42.622;25.386;2023-04-16T13:28:06;8.88;;;7.22;;
9438;SDS011;5176;42.622;25.386;2023-04-16T13:30:37;7.47;;;6.68;;
9438;SDS011;5176;42.622;25.386;2023-04-16T13:33:06;9.55;;;6.78;;
9438;SDS011;5176;42.622;25.386;2023-04-16T13:35:36;8.48;;;6.45;;
9438;SDS011;5176;42.622;25.386;2023-04-16T13:38:05;12.02;;;7.55;;
9438;SDS011;5176;42.622;25.386;2023-04-16T13:40:33;8.32;;;6.93;;
9438;SDS011;5176;42.622;25.386;2023-04-16T13:43:02;5.82;;;5.32;;
9438;SDS011;5176;42.622;25.386;2023-04-16T13:45:32;8.57;;;6.72;;
9438;SDS011;5176;42.622;25.386;2023-04-16T13:48:02;10.45;;;6.95;;
9438;SDS011;5176;42.622;25.386;2023-04-16T13:50:32;10.55;;;7.15;;
9438;SDS011;5176;42.622;25.386;2023-04-16T13:53:01;7.60;;;6.80;;
9438;SDS011;5176;42.622;25.386;2023-04-16T13:55:30;7.82;;;5.85;;
9438;SDS011;5176;42.622;25.386;2023-04-16T13:57:59;10.60;;;6.38;;
9438;SDS011;5176;42.622;25.386;2023-04-16T14:00:27;7.88;;;6.13;;
9438;SDS011;5176;42.622;25.386;2023-04-16T14:02:56;8.77;;;6.25;;
9438;SDS011;5176;42.622;25.386;2023-04-16T14:05:27;10.85;;;6.28;;
9438;SDS011;5176;42.622;25.386;2023-04-16T14:07:56;8.75;;;6.35;;
9438;SDS011;5176;42.622;25.386;2023-04-16T14:10:25;9.98;;;5.78;;
9438;SDS011;5176;42.622;25.386;2023-04-16T14:12:54;7.90;;;5.55;;
9438;SDS011;5176;42.622;25.386;2023-04-16T14:15:24;8.20;;;5.57;;
9438;SDS011;5176;42.622;25.386;2023-04-16T14:17:55;10.00;;;6.30;;
9438;SDS011;5176;42.622;25.386;2023-04-16T14:20:24;6.32;;;5.38;;
9438;SDS011;5176;42.622;25.386;2023-04-16T14:22:54;10.00;;;6.47;;
9438;SDS011;5176;42.622;25.386;2023-04-16T14:25:23;7.47;;;5.07;;
9438;SDS011;5176;42.622;25.386;2023-04-16T14:27:52;9.98;;;5.65;;
9438;SDS011;5176;42.622;25.386;2023-04-16T14:30:21;5.68;;;4.40;;
9438;SDS011;5176;42.622;25.386;2023-04-16T14:32:49;9.27;;;5.80;;
9438;SDS011;5176;42.622;25.386;2023-04-16T14:35:18;6.45;;;4.82;;
9438;SDS011;5176;42.622;25.386;2023-04-16T14:37:47;9.48;;;5.00;;
9438;SDS011;5176;42.622;25.386;2023-04-16T14:40:17;7.88;;;5.18;;
9438;SDS011;5176;42.622;25.386;2023-04-16T14:42:46;7.95;;;5.57;;
9438;SDS011;5176;42.622;25.386;2023-04-16T14:45:15;9.18;;;5.20;;
9438;SDS011;5176;42.622;25.386;2023-04-16T14:47:44;6.22;;;4.72;;
9438;SDS011;5176;42.622;25.386;2023-04-16T14:50:13;7.47;;;4.47;;
9438;SDS011;5176;42.622;25.386;2023-04-16T14:52:42;5.20;;;4.35;;
9438;SDS011;5176;42.622;25.386;2023-04-16T14:55:11;7.60;;;5.03;;
9438;SDS011;5176;42.622;25.386;2023-04-16T14:57:41;8.50;;;5.85;;
9438;SDS011;5176;42.622;25.386;2023-04-16T15:00:11;6.15;;;4.45;;
9438;SDS011;5176;42.622;25.386;2023-04-16T15:02:43;6.53;;;4.63;;
9438;SDS011;5176;42.622;25.386;2023-04-16T15:05:13;5.25;;;4.72;;
9438;SDS011;5176;42.622;25.386;2023-04-16T15:07:42;5.32;;;4.50;;